Sam Phoenix — D5LE3 — position and weather

sailwx.info

Track history (hours):
 
Tides and Currents Weather Stations Pressure Air Temp Water Temp Dewpoint Dewpoint Depression Visibility Wind Speed Wind Dir Waves Ship Positions

Sam Phoenix

Last reported at 2018-Jun-19 05:46 UTC. Time now 2018-Jul-23 00:11 UTC.
Position N 01°20' E 104°23'.
Warning: this ship's position is 33 days out of date.

Length 179 m; draft 6.3 m.

Type: Cargo ship. MMSI: 636017482.

Date/timePositionNaut miles runAvg speedWind from/ knotsBaromVisibWave heightAir tempDewpointWater temp
2018-Jun-19 05:46N 01°20' E 104°23'5 9.0
2018-Jun-19 05:13N 01°17' E 104°19'3 9.4
2018-Jun-19 04:55N 01°16' E 104°17'4 9.9
2018-Jun-19 04:29N 01°16' E 104°12'510.0
2018-Jun-19 03:59N 01°15' E 104°08'611.4
2018-Jun-19 03:29N 01°15' E 104°02'6 9.9
2018-Jun-19 02:54N 01°16' E 103°56'1 2.6
2018-Jun-19 02:23N 01°17' E 103°55'0 0.0
2018-Jun-19 01:53N 01°17' E 103°55'0 0.1
2018-Jun-19 01:26N 01°17' E 103°55'0 0.1
2018-Jun-19 00:32N 01°17' E 103°55'0 0.0
2018-Jun-19 00:20N 01°17' E 103°55'0 0.0
2018-Jun-18 23:59N 01°17' E 103°55'0 0.0
2018-Jun-18 23:14N 01°17' E 103°55'0 0.0
2018-Jun-18 22:53N 01°17' E 103°55'0 0.0
2018-Jun-18 22:20N 01°17' E 103°55'0 0.0
2018-Jun-18 21:56N 01°17' E 103°55'0 0.0
2018-Jun-18 21:26N 01°17' E 103°55'0 0.1
2018-Jun-18 20:44N 01°17' E 103°55'0 0.0
2018-Jun-18 19:53N 01°17' E 103°55'0 0.0
2018-Jun-18 19:26N 01°17' E 103°55'0 0.1
2018-Jun-18 18:44N 01°17' E 103°55'0 0.1
2018-Jun-18 17:29N 01°17' E 103°55'0 0.2
2018-Jun-18 16:44N 01°17' E 103°55'0 0.0
2018-Jun-18 16:29N 01°17' E 103°55'0 0.0
2018-Jun-18 15:50N 01°17' E 103°55'0 0.0
2018-Jun-18 15:11N 01°17' E 103°55'0 0.1
2018-Jun-18 14:35N 01°17' E 103°55'0 0.0
2018-Jun-18 14:16N 01°17' E 103°55'0 0.0
2018-Jun-18 13:35N 01°17' E 103°55'0 0.0
2018-Jun-18 13:29N 01°17' E 103°55'0 0.0
2018-Jun-18 12:50N 01°17' E 103°55'0 0.0
2018-Jun-18 12:29N 01°17' E 103°55'0 0.0
2018-Jun-18 11:56N 01°17' E 103°55'0 0.0
2018-Jun-18 11:23N 01°17' E 103°55'0 0.1
2018-Jun-18 10:17N 01°17' E 103°55'0 0.0
2018-Jun-18 09:53N 01°17' E 103°55'0 0.0
2018-Jun-18 08:56N 01°17' E 103°55'0 0.0
2018-Jun-18 08:17N 01°17' E 103°55'0 0.0
2018-Jun-18 07:53N 01°17' E 103°55'0 0.0
2018-Jun-18 07:29N 01°17' E 103°55'0 0.0
2018-Jun-18 06:59N 01°17' E 103°55'0 0.1
2018-Jun-18 06:05N 01°17' E 103°55'0 0.1
2018-Jun-18 05:49N 01°17' E 103°55'0 0.0
2018-Jun-18 05:29N 01°17' E 103°55'0 0.0
2018-Jun-18 04:56N 01°17' E 103°55'0 0.1
2018-Jun-18 04:17N 01°17' E 103°55'0 0.0
2018-Jun-18 03:59N 01°17' E 103°55'0 0.1
2018-Jun-18 03:23N 01°17' E 103°55'0 0.1
2018-Jun-18 02:56N 01°17' E 103°55'0 0.2
2018-Jun-18 02:26N 01°17' E 103°55'0 0.0
2018-Jun-18 01:59N 01°17' E 103°55'0 0.0
2018-Jun-18 01:14N 01°17' E 103°55'0 0.2
2018-Jun-18 00:58N 01°17' E 103°55'0 0.0
2018-Jun-18 00:26N 01°17' E 103°55'0 0.0
2018-Jun-17 23:52N 01°17' E 103°55'0 0.2
2018-Jun-17 23:28N 01°17' E 103°55'0 0.0
2018-Jun-17 22:44N 01°17' E 103°55'0 0.0
2018-Jun-17 22:29N 01°17' E 103°55'0 0.0
2018-Jun-17 21:41N 01°17' E 103°55'0 0.0
2018-Jun-17 21:28N 01°17' E 103°55'0 0.0
2018-Jun-17 20:53N 01°17' E 103°55'0 0.0
2018-Jun-17 20:23N 01°17' E 103°55'0 0.0
2018-Jun-17 19:53N 01°17' E 103°55'0 0.0
2018-Jun-17 19:29N 01°17' E 103°55'0 0.1
2018-Jun-17 18:53N 01°17' E 103°55'0 0.1
2018-Jun-17 18:14N 01°17' E 103°55'0 0.0
2018-Jun-17 17:53N 01°17' E 103°55'0 0.0
2018-Jun-17 17:28N 01°17' E 103°55'0 0.1
2018-Jun-17 16:59N 01°17' E 103°55'0 0.1
2018-Jun-17 16:26N 01°17' E 103°55'0 0.0
2018-Jun-17 15:14N 01°17' E 103°55'0 0.0
2018-Jun-17 14:53N 01°17' E 103°55'0 0.0
2018-Jun-17 14:28N 01°17' E 103°55'0 0.0
2018-Jun-17 13:56N 01°17' E 103°55'0 0.0
2018-Jun-17 13:11N 01°17' E 103°55'0 0.0
2018-Jun-17 12:47N 01°17' E 103°55'0 0.0
2018-Jun-17 12:26N 01°17' E 103°55'0 0.0
2018-Jun-17 11:50N 01°17' E 103°55'0 0.1
2018-Jun-17 11:29N 01°17' E 103°55'0 0.0
2018-Jun-17 10:52N 01°17' E 103°55'0 0.1
2018-Jun-17 10:16N 01°17' E 103°55'0 0.0
2018-Jun-17 09:52N 01°17' E 103°55'0 0.0
2018-Jun-17 09:25N 01°17' E 103°55'0 0.0
2018-Jun-17 08:59N 01°17' E 103°55'0 0.0
2018-Jun-17 08:25N 01°17' E 103°55'0 0.0
2018-Jun-17 07:55N 01°17' E 103°55'0 0.0
2018-Jun-17 07:28N 01°17' E 103°55'0 0.1
2018-Jun-17 06:58N 01°17' E 103°55'0 0.1
2018-Jun-17 06:25N 01°17' E 103°55'0 0.3
2018-Jun-17 05:55N 01°17' E 103°55'0 0.1
2018-Jun-17 05:19N 01°17' E 103°55'0 0.1
2018-Jun-17 04:52N 01°17' E 103°55'0 0.1
2018-Jun-17 03:52N 01°17' E 103°55'0 0.0
2018-Jun-17 03:28N 01°17' E 103°55'0 0.0
2018-Jun-17 02:40N 01°17' E 103°55'0 0.0
2018-Jun-17 02:28N 01°17' E 103°55'0 0.0
2018-Jun-17 01:58N 01°17' E 103°55'0 0.0
2018-Jun-17 01:28N 01°17' E 103°55'0 0.0
2018-Jun-17 00:49N 01°17' E 103°55'0 0.2
2018-Jun-17 00:28N 01°17' E 103°55'0 0.0
2018-Jun-16 23:58N 01°17' E 103°55'0 0.0
2018-Jun-16 23:29N 01°17' E 103°55'0 0.1
2018-Jun-16 22:52N 01°17' E 103°55'0 0.0
2018-Jun-16 22:26N 01°17' E 103°55'0 0.0
2018-Jun-16 21:55N 01°17' E 103°55'0 0.0
2018-Jun-16 21:22N 01°17' E 103°55'0 0.0
2018-Jun-16 20:52N 01°17' E 103°55'0 0.0
2018-Jun-16 20:19N 01°17' E 103°55'0 0.0
2018-Jun-16 19:52N 01°17' E 103°55'0 0.0
2018-Jun-16 19:28N 01°17' E 103°55'0 0.0
2018-Jun-16 18:34N 01°17' E 103°55'0 0.0
2018-Jun-16 18:28N 01°17' E 103°55'0 0.0
2018-Jun-16 17:58N 01°17' E 103°55'0 0.0
2018-Jun-16 17:28N 01°17' E 103°55'0 0.1
2018-Jun-16 16:56N 01°17' E 103°55'0 0.1
2018-Jun-16 16:28N 01°17' E 103°55'0 0.1
2018-Jun-16 15:43N 01°17' E 103°55'0 0.0
2018-Jun-16 15:28N 01°17' E 103°55'0 0.0
2018-Jun-16 14:31N 01°17' E 103°55'0 0.0
2018-Jun-16 14:22N 01°17' E 103°55'0 0.0
2018-Jun-16 13:52N 01°17' E 103°55'0 0.0
2018-Jun-16 11:52N 01°17' E 103°55'0 0.1
2018-Jun-16 11:07N 01°17' E 103°55'0 0.0
2018-Jun-16 10:40N 01°17' E 103°55'0 0.1
2018-Jun-16 10:25N 01°17' E 103°55'0 0.0
2018-Jun-16 09:58N 01°17' E 103°55'0 0.1
2018-Jun-16 09:22N 01°17' E 103°55'0 0.0
2018-Jun-16 08:58N 01°17' E 103°55'0 0.0
2018-Jun-16 08:16N 01°17' E 103°55'0 0.0
2018-Jun-16 07:46N 01°17' E 103°55'0 0.1
2018-Jun-16 07:19N 01°17' E 103°55'0 0.2
2018-Jun-16 06:58N 01°17' E 103°55'0 0.0
2018-Jun-16 06:28N 01°17' E 103°55'0 0.0
2018-Jun-16 05:58N 01°17' E 103°55'0 0.1
2018-Jun-16 05:25N 01°17' E 103°55'0 0.1
2018-Jun-16 04:52N 01°17' E 103°55'0 0.2
2018-Jun-16 04:28N 01°17' E 103°55'0 0.1
2018-Jun-16 03:49N 01°17' E 103°55'0 0.1
2018-Jun-16 03:25N 01°17' E 103°55'0 0.0
2018-Jun-16 02:43N 01°17' E 103°55'0 0.0
2018-Jun-16 02:10N 01°17' E 103°55'0 0.0
2018-Jun-16 01:52N 01°17' E 103°55'0 0.0
2018-Jun-16 01:22N 01°17' E 103°55'0 0.0
2018-Jun-16 00:52N 01°17' E 103°55'0 0.0
2018-Jun-16 00:28N 01°17' E 103°55'0 0.0
2018-Jun-15 23:58N 01°17' E 103°55'0 0.1
2018-Jun-15 23:19N 01°17' E 103°55'0 0.0
2018-Jun-15 22:52N 01°17' E 103°55'0 0.0
2018-Jun-15 22:25N 01°17' E 103°55'0 0.1
2018-Jun-15 21:52N 01°17' E 103°55'0 0.0
2018-Jun-15 21:13N 01°17' E 103°55'0 0.0
2018-Jun-15 20:58N 01°17' E 103°55'0 0.0
2018-Jun-15 20:28N 01°17' E 103°55'0 0.0
2018-Jun-15 19:49N 01°17' E 103°55'0 0.0
2018-Jun-15 19:29N 01°17' E 103°55'0 0.0
2018-Jun-15 18:55N 01°17' E 103°55'0 0.0
2018-Jun-15 18:25N 01°17' E 103°55'0 0.0
2018-Jun-15 17:49N 01°17' E 103°55'0 0.0
2018-Jun-15 17:22N 01°17' E 103°55'0 0.0
2018-Jun-15 16:58N 01°17' E 103°55'0 0.0
2018-Jun-15 16:25N 01°17' E 103°55'0 0.0
2018-Jun-15 15:55N 01°17' E 103°55'0 0.2
2018-Jun-15 15:19N 01°17' E 103°55'0 0.1
2018-Jun-15 14:28N 01°17' E 103°55'0 0.0
2018-Jun-15 13:37N 01°17' E 103°55'0 0.0
2018-Jun-15 13:22N 01°17' E 103°55'0 0.0
2018-Jun-15 12:55N 01°17' E 103°55'0 0.0
2018-Jun-15 12:25N 01°17' E 103°55'0 0.0
2018-Jun-15 11:43N 01°17' E 103°55'0 0.0
2018-Jun-15 11:25N 01°17' E 103°55'0 0.0
2018-Jun-15 10:16N 01°17' E 103°55'0 0.0
2018-Jun-15 09:58N 01°17' E 103°55'0 0.1
2018-Jun-15 09:19N 01°17' E 103°55'0 0.0
2018-Jun-15 08:52N 01°17' E 103°55'0 0.1
2018-Jun-15 08:16N 01°17' E 103°55'0 0.0
2018-Jun-15 07:58N 01°17' E 103°55'0 0.1
2018-Jun-15 06:49N 01°17' E 103°55'0 0.1
2018-Jun-15 06:22N 01°17' E 103°55'0 0.0
2018-Jun-15 05:37N 01°17' E 103°55'0 0.3
2018-Jun-15 05:25N 01°17' E 103°55'0 0.0
2018-Jun-15 04:58N 01°17' E 103°55'0 0.1
2018-Jun-15 04:22N 01°17' E 103°55'0 0.0
2018-Jun-15 03:55N 01°17' E 103°55'0 0.0
2018-Jun-15 03:25N 01°17' E 103°55'0 0.2
2018-Jun-15 02:37N 01°17' E 103°55'0 0.5
2018-Jun-15 02:28N 01°17' E 103°55'0 0.2
2018-Jun-15 01:37N 01°17' E 103°55'0 0.0
2018-Jun-15 01:28N 01°17' E 103°55'0 0.0
2018-Jun-15 00:46N 01°17' E 103°55'0 0.0
2018-Jun-15 00:19N 01°17' E 103°55'0 0.0
2018-Jun-14 23:52N 01°17' E 103°55'0 0.1
2018-Jun-14 22:43N 01°17' E 103°55'0 0.0
2018-Jun-14 22:28N 01°17' E 103°55'0 0.0
2018-Jun-14 21:58N 01°17' E 103°55'0 0.0
2018-Jun-14 21:22N 01°17' E 103°55'0 0.0
2018-Jun-14 20:49N 01°17' E 103°55'0 0.0
2018-Jun-14 20:30N 01°17' E 103°55'0 0.0
2018-Jun-14 19:55N 01°17' E 103°55'0 0.0
2018-Jun-14 19:25N 01°17' E 103°55'0 0.0
2018-Jun-14 18:49N 01°17' E 103°55'0 0.0
2018-Jun-14 18:28N 01°17' E 103°55'0 0.0
2018-Jun-14 17:54N 01°17' E 103°55'0 0.0
2018-Jun-14 17:13N 01°17' E 103°55'0 0.0
2018-Jun-14 16:58N 01°17' E 103°55'0 0.0
2018-Jun-14 16:13N 01°17' E 103°55'0 0.2
2018-Jun-14 15:55N 01°17' E 103°55'0 0.0
2018-Jun-14 15:25N 01°17' E 103°55'0 0.1
2018-Jun-14 14:49N 01°17' E 103°55'0 0.1
2018-Jun-14 14:25N 01°17' E 103°55'0 0.0
2018-Jun-14 13:40N 01°17' E 103°55'0 0.2
2018-Jun-14 13:22N 01°17' E 103°55'0 0.1
2018-Jun-14 12:58N 01°17' E 103°55'0 0.0
2018-Jun-14 12:28N 01°17' E 103°55'0 0.0
2018-Jun-14 11:40N 01°17' E 103°55'0 0.0
2018-Jun-14 11:19N 01°17' E 103°55'0 0.1
2018-Jun-14 10:49N 01°17' E 103°55'0 0.1
2018-Jun-14 10:16N 01°17' E 103°55'0 0.0
2018-Jun-14 09:52N 01°17' E 103°55'0 0.1
2018-Jun-14 09:28N 01°17' E 103°55'0 0.0
2018-Jun-14 08:55N 01°17' E 103°55'0 0.0
2018-Jun-14 08:04N 01°17' E 103°55'0 0.1
2018-Jun-14 07:52N 01°17' E 103°55'0 0.1
2018-Jun-14 07:07N 01°17' E 103°55'0 0.0
2018-Jun-14 06:55N 01°17' E 103°55'0 0.0
2018-Jun-14 06:28N 01°17' E 103°55'0 0.1
2018-Jun-14 05:52N 01°17' E 103°55'0 0.1
2018-Jun-14 05:19N 01°17' E 103°55'0 0.0
2018-Jun-14 04:52N 01°17' E 103°55'0 0.0
2018-Jun-14 04:16N 01°17' E 103°55'0 0.0
2018-Jun-14 03:55N 01°17' E 103°55'0 0.0
2018-Jun-14 03:28N 01°17' E 103°55'0 0.0
2018-Jun-14 02:58N 01°17' E 103°55'0 0.0
2018-Jun-14 02:19N 01°17' E 103°55'0 0.2
2018-Jun-14 01:58N 01°17' E 103°55'0 0.0
2018-Jun-14 01:28N 01°17' E 103°55'0 0.0
2018-Jun-14 00:58N 01°17' E 103°55'0 0.0
2018-Jun-14 00:10N 01°17' E 103°55'0 0.0
2018-Jun-13 23:58N 01°17' E 103°55'0 0.1
2018-Jun-13 23:01N 01°17' E 103°55'0 0.0
2018-Jun-13 22:40N 01°17' E 103°55'0 0.1
2018-Jun-13 22:10N 01°17' E 103°55'0 0.0
2018-Jun-13 21:52N 01°17' E 103°55'0 0.0
2018-Jun-13 21:25N 01°17' E 103°55'0 0.0
2018-Jun-13 20:58N 01°17' E 103°55'0 0.0
2018-Jun-13 20:28N 01°17' E 103°55'0 0.0
2018-Jun-13 19:55N 01°17' E 103°55'0 0.0
2018-Jun-13 19:01N 01°17' E 103°55'0 0.1
2018-Jun-13 18:58N 01°17' E 103°55'0 0.0
2018-Jun-13 18:18N 01°17' E 103°55'0 0.0
2018-Jun-13 17:58N 01°17' E 103°55'0 0.0
2018-Jun-13 17:29N 01°17' E 103°55'0 0.0
2018-Jun-13 16:43N 01°17' E 103°55'0 0.0
2018-Jun-13 16:25N 01°17' E 103°55'0 0.0
2018-Jun-13 15:58N 01°17' E 103°55'0 0.1
2018-Jun-13 13:28N 01°17' E 103°55'0 0.0
2018-Jun-13 10:58N 01°17' E 103°55'0 0.0
2018-Jun-13 10:10N 01°17' E 103°55'0 0.1
2018-Jun-13 08:51N 01°17' E 103°55'0 0.2
2018-Jun-13 08:28N 01°17' E 103°55'0 0.0
2018-Jun-13 05:10N 01°17' E 103°55'0 0.1
2018-Jun-13 04:04N 01°17' E 103°55'0 0.2
2018-Jun-13 03:46N 01°17' E 103°55'0 0.1
2018-Jun-13 03:16N 01°17' E 103°55'0 0.1
2018-Jun-13 01:52N 01°17' E 103°55'0 0.0
2018-Jun-12 23:46N 01°17' E 103°55'0 0.0
2018-Jun-12 23:25N 01°17' E 103°55'0 0.0
2018-Jun-12 22:58N 01°17' E 103°55'0 0.1
2018-Jun-12 22:16N 01°17' E 103°55'0 0.0
2018-Jun-12 21:40N 01°17' E 103°55'0 0.0
2018-Jun-12 20:46N 01°17' E 103°55'0 0.0
2018-Jun-12 20:04N 01°17' E 103°55'0 0.0
2018-Jun-12 19:54N 01°17' E 103°55'0 0.0
2018-Jun-12 19:25N 01°17' E 103°55'0 0.0
2018-Jun-12 18:55N 01°17' E 103°55'0 0.0
2018-Jun-12 18:28N 01°17' E 103°55'0 0.0
2018-Jun-12 17:58N 01°17' E 103°55'0 0.0
2018-Jun-12 17:25N 01°17' E 103°55'0 0.0
2018-Jun-12 16:07N 01°17' E 103°55'0 0.0
2018-Jun-12 15:55N 01°17' E 103°55'0 0.1
2018-Jun-12 15:22N 01°17' E 103°55'0 0.0
2018-Jun-12 14:55N 01°17' E 103°55'0 0.0
2018-Jun-12 14:28N 01°17' E 103°55'0 0.1
2018-Jun-12 13:58N 01°17' E 103°55'0 0.0
2018-Jun-12 13:28N 01°17' E 103°55'0 0.1
2018-Jun-12 12:58N 01°17' E 103°55'0 0.0
2018-Jun-12 12:28N 01°17' E 103°55'0 0.0
2018-Jun-12 11:55N 01°17' E 103°55'0 0.0
2018-Jun-12 11:25N 01°17' E 103°55'0 0.0
2018-Jun-12 10:46N 01°17' E 103°55'0 0.0
2018-Jun-12 10:16N 01°17' E 103°55'0 0.1
2018-Jun-12 09:40N 01°17' E 103°55'0 0.0
2018-Jun-12 09:28N 01°17' E 103°55'0 0.1
2018-Jun-12 08:25N 01°17' E 103°55'0 0.0
2018-Jun-12 07:58N 01°17' E 103°55'0 0.0
2018-Jun-12 07:22N 01°17' E 103°55'0 0.0
2018-Jun-12 06:47N 01°17' E 103°55'0 0.0
2018-Jun-12 06:29N 01°17' E 103°55'0 0.0
2018-Jun-12 05:44N 01°17' E 103°55'0 0.0
2018-Jun-12 05:26N 01°17' E 103°55'0 0.0
2018-Jun-12 04:59N 01°17' E 103°55'0 0.1
2018-Jun-12 04:26N 01°17' E 103°55'0 0.0
2018-Jun-12 03:44N 01°17' E 103°55'0 0.2
2018-Jun-12 03:23N 01°17' E 103°55'0 0.0
2018-Jun-12 02:56N 01°17' E 103°55'0 0.1
2018-Jun-12 02:11N 01°17' E 103°55'0 0.2
2018-Jun-12 01:56N 01°17' E 103°55'0 0.1
2018-Jun-12 01:29N 01°17' E 103°55'0 0.0
2018-Jun-12 00:59N 01°17' E 103°55'0 0.0
2018-Jun-12 00:29N 01°17' E 103°55'0 0.0
2018-Jun-11 23:58N 01°17' E 103°55'0 0.0
2018-Jun-11 23:17N 01°17' E 103°55'0 0.1
2018-Jun-11 22:59N 01°17' E 103°55'0 0.1
2018-Jun-11 22:20N 01°17' E 103°55'0 0.0
2018-Jun-11 21:43N 01°17' E 103°55'0 0.0
2018-Jun-11 21:29N 01°17' E 103°55'0 0.0
2018-Jun-11 20:59N 01°17' E 103°55'0 0.1
2018-Jun-11 20:11N 01°17' E 103°55'0 0.0
2018-Jun-11 19:58N 01°17' E 103°55'0 0.0
2018-Jun-11 19:26N 01°17' E 103°55'0 0.1
2018-Jun-11 18:59N 01°17' E 103°55'0 0.0
2018-Jun-11 18:29N 01°17' E 103°55'0 0.0
2018-Jun-11 17:34N 01°17' E 103°55'0 0.0
2018-Jun-11 17:23N 01°17' E 103°55'0 0.0
2018-Jun-11 16:59N 01°17' E 103°55'0 0.0
2018-Jun-11 16:26N 01°17' E 103°55'0 0.1
2018-Jun-11 15:17N 01°17' E 103°55'0 0.0
2018-Jun-11 14:59N 01°17' E 103°55'0 0.0
2018-Jun-11 14:29N 01°17' E 103°55'0 0.0
2018-Jun-11 13:59N 01°17' E 103°55'0 0.1
2018-Jun-11 12:46N 01°17' E 103°55'0 0.0
2018-Jun-11 12:26N 01°17' E 103°55'0 0.0
2018-Jun-11 11:56N 01°17' E 103°55'0 0.0
2018-Jun-11 11:29N 01°17' E 103°55'0 0.1
2018-Jun-11 10:55N 01°17' E 103°55'0 0.0
2018-Jun-11 10:19N 01°17' E 103°55'0 0.1
2018-Jun-11 09:43N 01°17' E 103°55'0 0.0
2018-Jun-11 08:52N 01°17' E 103°55'0 0.1
2018-Jun-11 08:20N 01°17' E 103°55'0 0.2
2018-Jun-11 07:58N 01°17' E 103°55'0 0.0
2018-Jun-11 07:28N 01°17' E 103°55'0 0.0
2018-Jun-11 06:52N 01°17' E 103°55'0 0.0
2018-Jun-11 06:28N 01°17' E 103°55'0 0.0
2018-Jun-11 05:55N 01°17' E 103°55'0 0.1
2018-Jun-11 05:28N 01°17' E 103°55'0 0.1
2018-Jun-11 04:58N 01°17' E 103°55'0 0.1
2018-Jun-11 04:28N 01°17' E 103°55'0 0.1
2018-Jun-11 03:40N 01°17' E 103°55'0 0.0
2018-Jun-11 03:28N 01°17' E 103°55'0 0.0
2018-Jun-11 02:59N 01°17' E 103°55'0 0.0
2018-Jun-11 01:28N 01°17' E 103°55'0 0.1
2018-Jun-11 00:58N 01°17' E 103°55'0 0.0
2018-Jun-11 00:19N 01°17' E 103°55'0 0.2
2018-Jun-10 23:52N 01°17' E 103°55'0 0.1
2018-Jun-10 23:25N 01°17' E 103°55'0 0.0
2018-Jun-10 22:55N 01°17' E 103°55'0 0.0
2018-Jun-10 22:28N 01°17' E 103°55'0 0.0
2018-Jun-10 21:37N 01°17' E 103°55'0 0.4
2018-Jun-10 21:28N 01°17' E 103°55'0 0.1
2018-Jun-10 20:56N 01°17' E 103°55'0 0.0
2018-Jun-10 20:07N 01°17' E 103°55'0 0.1
2018-Jun-10 19:58N 01°17' E 103°55'0 0.1
2018-Jun-10 18:37N 01°17' E 103°55'0 0.0
2018-Jun-10 18:25N 01°17' E 103°55'0 0.1
2018-Jun-10 17:53N 01°17' E 103°55'0 0.0
2018-Jun-10 17:28N 01°17' E 103°55'0 0.1
2018-Jun-10 16:56N 01°17' E 103°55'0 0.0
2018-Jun-10 16:25N 01°17' E 103°55'0 0.0
2018-Jun-10 15:43N 01°17' E 103°55'0 0.1
2018-Jun-10 14:53N 01°17' E 103°55'0 0.0
2018-Jun-10 14:28N 01°17' E 103°55'0 0.0
2018-Jun-10 13:20N 01°17' E 103°55'0 0.0
2018-Jun-10 12:47N 01°17' E 103°55'0 0.0
2018-Jun-10 12:13N 01°17' E 103°55'0 0.2
2018-Jun-10 11:59N 01°17' E 103°55'0 0.0
2018-Jun-10 11:28N 01°17' E 103°55'0 0.0
2018-Jun-10 10:28N 01°17' E 103°55'0 0.1
2018-Jun-10 09:58N 01°17' E 103°55'0 0.3
2018-Jun-10 09:29N 01°17' E 103°55'3 6.4
2018-Jun-10 09:00N 01°16' E 103°58'2 4.4
2018-Jun-10 08:30N 01°16' E 104°00'3 6.3
2018-Jun-10 07:58N 01°17' E 104°04'4 7.1
2018-Jun-10 07:27N 01°17' E 104°07'4 7.7
2018-Jun-10 06:59N 01°18' E 104°11'4 9.2
2018-Jun-10 06:31N 01°18' E 104°15'6 8.3
2018-Jun-10 05:51N 01°20' E 104°20'5 8.2
2018-Jun-10 05:16N 01°23' E 104°24'  
Track history (hours):
 
Tides and Currents Weather Stations Pressure Air Temp Water Temp Dewpoint Dewpoint Depression Visibility Wind Speed Wind Dir Waves Ship Positions

Sam Phoenix

Last reported at 2018-Jun-19 05:46 UTC. Time now 2018-Jul-23 00:11 UTC.
Position N 01°20' E 104°23'.
Warning: this ship's position is 33 days out of date.

Length 179 m; draft 6.3 m.

Type: Cargo ship. MMSI: 636017482.

Date/timePositionNaut miles runAvg speedWind from/ knotsBaromVisibWave heightAir tempDewpointWater temp
2018-Jun-19 05:46N 01°20' E 104°23'5 9.0
2018-Jun-19 05:13N 01°17' E 104°19'3 9.4
2018-Jun-19 04:55N 01°16' E 104°17'4 9.9
2018-Jun-19 04:29N 01°16' E 104°12'510.0
2018-Jun-19 03:59N 01°15' E 104°08'611.4
2018-Jun-19 03:29N 01°15' E 104°02'6 9.9
2018-Jun-19 02:54N 01°16' E 103°56'1 2.6
2018-Jun-19 02:23N 01°17' E 103°55'0 0.0
2018-Jun-19 01:53N 01°17' E 103°55'0 0.1
2018-Jun-19 01:26N 01°17' E 103°55'0 0.1
2018-Jun-19 00:32N 01°17' E 103°55'0 0.0
2018-Jun-19 00:20N 01°17' E 103°55'0 0.0
2018-Jun-18 23:59N 01°17' E 103°55'0 0.0
2018-Jun-18 23:14N 01°17' E 103°55'0 0.0
2018-Jun-18 22:53N 01°17' E 103°55'0 0.0
2018-Jun-18 22:20N 01°17' E 103°55'0 0.0
2018-Jun-18 21:56N 01°17' E 103°55'0 0.0
2018-Jun-18 21:26N 01°17' E 103°55'0 0.1
2018-Jun-18 20:44N 01°17' E 103°55'0 0.0
2018-Jun-18 19:53N 01°17' E 103°55'0 0.0
2018-Jun-18 19:26N 01°17' E 103°55'0 0.1
2018-Jun-18 18:44N 01°17' E 103°55'0 0.1
2018-Jun-18 17:29N 01°17' E 103°55'0 0.2
2018-Jun-18 16:44N 01°17' E 103°55'0 0.0
2018-Jun-18 16:29N 01°17' E 103°55'0 0.0
2018-Jun-18 15:50N 01°17' E 103°55'0 0.0
2018-Jun-18 15:11N 01°17' E 103°55'0 0.1
2018-Jun-18 14:35N 01°17' E 103°55'0 0.0
2018-Jun-18 14:16N 01°17' E 103°55'0 0.0
2018-Jun-18 13:35N 01°17' E 103°55'0 0.0
2018-Jun-18 13:29N 01°17' E 103°55'0 0.0
2018-Jun-18 12:50N 01°17' E 103°55'0 0.0
2018-Jun-18 12:29N 01°17' E 103°55'0 0.0
2018-Jun-18 11:56N 01°17' E 103°55'0 0.0
2018-Jun-18 11:23N 01°17' E 103°55'0 0.1
2018-Jun-18 10:17N 01°17' E 103°55'0 0.0
2018-Jun-18 09:53N 01°17' E 103°55'0 0.0
2018-Jun-18 08:56N 01°17' E 103°55'0 0.0
2018-Jun-18 08:17N 01°17' E 103°55'0 0.0
2018-Jun-18 07:53N 01°17' E 103°55'0 0.0
2018-Jun-18 07:29N 01°17' E 103°55'0 0.0
2018-Jun-18 06:59N 01°17' E 103°55'0 0.1
2018-Jun-18 06:05N 01°17' E 103°55'0 0.1
2018-Jun-18 05:49N 01°17' E 103°55'0 0.0
2018-Jun-18 05:29N 01°17' E 103°55'0 0.0
2018-Jun-18 04:56N 01°17' E 103°55'0 0.1
2018-Jun-18 04:17N 01°17' E 103°55'0 0.0
2018-Jun-18 03:59N 01°17' E 103°55'0 0.1
2018-Jun-18 03:23N 01°17' E 103°55'0 0.1
2018-Jun-18 02:56N 01°17' E 103°55'0 0.2
2018-Jun-18 02:26N 01°17' E 103°55'0 0.0
2018-Jun-18 01:59N 01°17' E 103°55'0 0.0
2018-Jun-18 01:14N 01°17' E 103°55'0 0.2
2018-Jun-18 00:58N 01°17' E 103°55'0 0.0
2018-Jun-18 00:26N 01°17' E 103°55'0 0.0
2018-Jun-17 23:52N 01°17' E 103°55'0 0.2
2018-Jun-17 23:28N 01°17' E 103°55'0 0.0
2018-Jun-17 22:44N 01°17' E 103°55'0 0.0
2018-Jun-17 22:29N 01°17' E 103°55'0 0.0
2018-Jun-17 21:41N 01°17' E 103°55'0 0.0
2018-Jun-17 21:28N 01°17' E 103°55'0 0.0
2018-Jun-17 20:53N 01°17' E 103°55'0 0.0
2018-Jun-17 20:23N 01°17' E 103°55'0 0.0
2018-Jun-17 19:53N 01°17' E 103°55'0 0.0
2018-Jun-17 19:29N 01°17' E 103°55'0 0.1
2018-Jun-17 18:53N 01°17' E 103°55'0 0.1
2018-Jun-17 18:14N 01°17' E 103°55'0 0.0
2018-Jun-17 17:53N 01°17' E 103°55'0 0.0
2018-Jun-17 17:28N 01°17' E 103°55'0 0.1
2018-Jun-17 16:59N 01°17' E 103°55'0 0.1
2018-Jun-17 16:26N 01°17' E 103°55'0 0.0
2018-Jun-17 15:14N 01°17' E 103°55'0 0.0
2018-Jun-17 14:53N 01°17' E 103°55'0 0.0
2018-Jun-17 14:28N 01°17' E 103°55'0 0.0
2018-Jun-17 13:56N 01°17' E 103°55'0 0.0
2018-Jun-17 13:11N 01°17' E 103°55'0 0.0
2018-Jun-17 12:47N 01°17' E 103°55'0 0.0
2018-Jun-17 12:26N 01°17' E 103°55'0 0.0
2018-Jun-17 11:50N 01°17' E 103°55'0 0.1
2018-Jun-17 11:29N 01°17' E 103°55'0 0.0
2018-Jun-17 10:52N 01°17' E 103°55'0 0.1
2018-Jun-17 10:16N 01°17' E 103°55'0 0.0
2018-Jun-17 09:52N 01°17' E 103°55'0 0.0
2018-Jun-17 09:25N 01°17' E 103°55'0 0.0
2018-Jun-17 08:59N 01°17' E 103°55'0 0.0
2018-Jun-17 08:25N 01°17' E 103°55'0 0.0
2018-Jun-17 07:55N 01°17' E 103°55'0 0.0
2018-Jun-17 07:28N 01°17' E 103°55'0 0.1
2018-Jun-17 06:58N 01°17' E 103°55'0 0.1
2018-Jun-17 06:25N 01°17' E 103°55'0 0.3
2018-Jun-17 05:55N 01°17' E 103°55'0 0.1
2018-Jun-17 05:19N 01°17' E 103°55'0 0.1
2018-Jun-17 04:52N 01°17' E 103°55'0 0.1
2018-Jun-17 03:52N 01°17' E 103°55'0 0.0
2018-Jun-17 03:28N 01°17' E 103°55'0 0.0
2018-Jun-17 02:40N 01°17' E 103°55'0 0.0
2018-Jun-17 02:28N 01°17' E 103°55'0 0.0
2018-Jun-17 01:58N 01°17' E 103°55'0 0.0
2018-Jun-17 01:28N 01°17' E 103°55'0 0.0
2018-Jun-17 00:49N 01°17' E 103°55'0 0.2
2018-Jun-17 00:28N 01°17' E 103°55'0 0.0
2018-Jun-16 23:58N 01°17' E 103°55'0 0.0
2018-Jun-16 23:29N 01°17' E 103°55'0 0.1
2018-Jun-16 22:52N 01°17' E 103°55'0 0.0
2018-Jun-16 22:26N 01°17' E 103°55'0 0.0
2018-Jun-16 21:55N 01°17' E 103°55'0 0.0
2018-Jun-16 21:22N 01°17' E 103°55'0 0.0
2018-Jun-16 20:52N 01°17' E 103°55'0 0.0
2018-Jun-16 20:19N 01°17' E 103°55'0 0.0
2018-Jun-16 19:52N 01°17' E 103°55'0 0.0
2018-Jun-16 19:28N 01°17' E 103°55'0 0.0
2018-Jun-16 18:34N 01°17' E 103°55'0 0.0
2018-Jun-16 18:28N 01°17' E 103°55'0 0.0
2018-Jun-16 17:58N 01°17' E 103°55'0 0.0
2018-Jun-16 17:28N 01°17' E 103°55'0 0.1
2018-Jun-16 16:56N 01°17' E 103°55'0 0.1
2018-Jun-16 16:28N 01°17' E 103°55'0 0.1
2018-Jun-16 15:43N 01°17' E 103°55'0 0.0
2018-Jun-16 15:28N 01°17' E 103°55'0 0.0
2018-Jun-16 14:31N 01°17' E 103°55'0 0.0
2018-Jun-16 14:22N 01°17' E 103°55'0 0.0
2018-Jun-16 13:52N 01°17' E 103°55'0 0.0
2018-Jun-16 11:52N 01°17' E 103°55'0 0.1
2018-Jun-16 11:07N 01°17' E 103°55'0 0.0
2018-Jun-16 10:40N 01°17' E 103°55'0 0.1
2018-Jun-16 10:25N 01°17' E 103°55'0 0.0
2018-Jun-16 09:58N 01°17' E 103°55'0 0.1
2018-Jun-16 09:22N 01°17' E 103°55'0 0.0
2018-Jun-16 08:58N 01°17' E 103°55'0 0.0
2018-Jun-16 08:16N 01°17' E 103°55'0 0.0
2018-Jun-16 07:46N 01°17' E 103°55'0 0.1
2018-Jun-16 07:19N 01°17' E 103°55'0 0.2
2018-Jun-16 06:58N 01°17' E 103°55'0 0.0
2018-Jun-16 06:28N 01°17' E 103°55'0 0.0
2018-Jun-16 05:58N 01°17' E 103°55'0 0.1
2018-Jun-16 05:25N 01°17' E 103°55'0 0.1
2018-Jun-16 04:52N 01°17' E 103°55'0 0.2
2018-Jun-16 04:28N 01°17' E 103°55'0 0.1
2018-Jun-16 03:49N 01°17' E 103°55'0 0.1
2018-Jun-16 03:25N 01°17' E 103°55'0 0.0
2018-Jun-16 02:43N 01°17' E 103°55'0 0.0
2018-Jun-16 02:10N 01°17' E 103°55'0 0.0
2018-Jun-16 01:52N 01°17' E 103°55'0 0.0
2018-Jun-16 01:22N 01°17' E 103°55'0 0.0
2018-Jun-16 00:52N 01°17' E 103°55'0 0.0
2018-Jun-16 00:28N 01°17' E 103°55'0 0.0
2018-Jun-15 23:58N 01°17' E 103°55'0 0.1
2018-Jun-15 23:19N 01°17' E 103°55'0 0.0
2018-Jun-15 22:52N 01°17' E 103°55'0 0.0
2018-Jun-15 22:25N 01°17' E 103°55'0 0.1
2018-Jun-15 21:52N 01°17' E 103°55'0 0.0
2018-Jun-15 21:13N 01°17' E 103°55'0 0.0
2018-Jun-15 20:58N 01°17' E 103°55'0 0.0
2018-Jun-15 20:28N 01°17' E 103°55'0 0.0
2018-Jun-15 19:49N 01°17' E 103°55'0 0.0
2018-Jun-15 19:29N 01°17' E 103°55'0 0.0
2018-Jun-15 18:55N 01°17' E 103°55'0 0.0
2018-Jun-15 18:25N 01°17' E 103°55'0 0.0
2018-Jun-15 17:49N 01°17' E 103°55'0 0.0
2018-Jun-15 17:22N 01°17' E 103°55'0 0.0
2018-Jun-15 16:58N 01°17' E 103°55'0 0.0
2018-Jun-15 16:25N 01°17' E 103°55'0 0.0
2018-Jun-15 15:55N 01°17' E 103°55'0 0.2
2018-Jun-15 15:19N 01°17' E 103°55'0 0.1
2018-Jun-15 14:28N 01°17' E 103°55'0 0.0
2018-Jun-15 13:37N 01°17' E 103°55'0 0.0
2018-Jun-15 13:22N 01°17' E 103°55'0 0.0
2018-Jun-15 12:55N 01°17' E 103°55'0 0.0
2018-Jun-15 12:25N 01°17' E 103°55'0 0.0
2018-Jun-15 11:43N 01°17' E 103°55'0 0.0
2018-Jun-15 11:25N 01°17' E 103°55'0 0.0
2018-Jun-15 10:16N 01°17' E 103°55'0 0.0
2018-Jun-15 09:58N 01°17' E 103°55'0 0.1
2018-Jun-15 09:19N 01°17' E 103°55'0 0.0
2018-Jun-15 08:52N 01°17' E 103°55'0 0.1
2018-Jun-15 08:16N 01°17' E 103°55'0 0.0
2018-Jun-15 07:58N 01°17' E 103°55'0 0.1
2018-Jun-15 06:49N 01°17' E 103°55'0 0.1
2018-Jun-15 06:22N 01°17' E 103°55'0 0.0
2018-Jun-15 05:37N 01°17' E 103°55'0 0.3
2018-Jun-15 05:25N 01°17' E 103°55'0 0.0
2018-Jun-15 04:58N 01°17' E 103°55'0 0.1
2018-Jun-15 04:22N 01°17' E 103°55'0 0.0
2018-Jun-15 03:55N 01°17' E 103°55'0 0.0
2018-Jun-15 03:25N 01°17' E 103°55'0 0.2
2018-Jun-15 02:37N 01°17' E 103°55'0 0.5
2018-Jun-15 02:28N 01°17' E 103°55'0 0.2
2018-Jun-15 01:37N 01°17' E 103°55'0 0.0
2018-Jun-15 01:28N 01°17' E 103°55'0 0.0
2018-Jun-15 00:46N 01°17' E 103°55'0 0.0
2018-Jun-15 00:19N 01°17' E 103°55'0 0.0
2018-Jun-14 23:52N 01°17' E 103°55'0 0.1
2018-Jun-14 22:43N 01°17' E 103°55'0 0.0
2018-Jun-14 22:28N 01°17' E 103°55'0 0.0
2018-Jun-14 21:58N 01°17' E 103°55'0 0.0
2018-Jun-14 21:22N 01°17' E 103°55'0 0.0
2018-Jun-14 20:49N 01°17' E 103°55'0 0.0
2018-Jun-14 20:30N 01°17' E 103°55'0 0.0
2018-Jun-14 19:55N 01°17' E 103°55'0 0.0
2018-Jun-14 19:25N 01°17' E 103°55'0 0.0
2018-Jun-14 18:49N 01°17' E 103°55'0 0.0
2018-Jun-14 18:28N 01°17' E 103°55'0 0.0
2018-Jun-14 17:54N 01°17' E 103°55'0 0.0
2018-Jun-14 17:13N 01°17' E 103°55'0 0.0
2018-Jun-14 16:58N 01°17' E 103°55'0 0.0
2018-Jun-14 16:13N 01°17' E 103°55'0 0.2
2018-Jun-14 15:55N 01°17' E 103°55'0 0.0
2018-Jun-14 15:25N 01°17' E 103°55'0 0.1
2018-Jun-14 14:49N 01°17' E 103°55'0 0.1
2018-Jun-14 14:25N 01°17' E 103°55'0 0.0
2018-Jun-14 13:40N 01°17' E 103°55'0 0.2
2018-Jun-14 13:22N 01°17' E 103°55'0 0.1
2018-Jun-14 12:58N 01°17' E 103°55'0 0.0
2018-Jun-14 12:28N 01°17' E 103°55'0 0.0
2018-Jun-14 11:40N 01°17' E 103°55'0 0.0
2018-Jun-14 11:19N 01°17' E 103°55'0 0.1
2018-Jun-14 10:49N 01°17' E 103°55'0 0.1
2018-Jun-14 10:16N 01°17' E 103°55'0 0.0
2018-Jun-14 09:52N 01°17' E 103°55'0 0.1
2018-Jun-14 09:28N 01°17' E 103°55'0 0.0
2018-Jun-14 08:55N 01°17' E 103°55'0 0.0
2018-Jun-14 08:04N 01°17' E 103°55'0 0.1
2018-Jun-14 07:52N 01°17' E 103°55'0 0.1
2018-Jun-14 07:07N 01°17' E 103°55'0 0.0
2018-Jun-14 06:55N 01°17' E 103°55'0 0.0
2018-Jun-14 06:28N 01°17' E 103°55'0 0.1
2018-Jun-14 05:52N 01°17' E 103°55'0 0.1
2018-Jun-14 05:19N 01°17' E 103°55'0 0.0
2018-Jun-14 04:52N 01°17' E 103°55'0 0.0
2018-Jun-14 04:16N 01°17' E 103°55'0 0.0
2018-Jun-14 03:55N 01°17' E 103°55'0 0.0
2018-Jun-14 03:28N 01°17' E 103°55'0 0.0
2018-Jun-14 02:58N 01°17' E 103°55'0 0.0
2018-Jun-14 02:19N 01°17' E 103°55'0 0.2
2018-Jun-14 01:58N 01°17' E 103°55'0 0.0
2018-Jun-14 01:28N 01°17' E 103°55'0 0.0
2018-Jun-14 00:58N 01°17' E 103°55'0 0.0
2018-Jun-14 00:10N 01°17' E 103°55'0 0.0
2018-Jun-13 23:58N 01°17' E 103°55'0 0.1
2018-Jun-13 23:01N 01°17' E 103°55'0 0.0
2018-Jun-13 22:40N 01°17' E 103°55'0 0.1
2018-Jun-13 22:10N 01°17' E 103°55'0 0.0
2018-Jun-13 21:52N 01°17' E 103°55'0 0.0
2018-Jun-13 21:25N 01°17' E 103°55'0 0.0
2018-Jun-13 20:58N 01°17' E 103°55'0 0.0
2018-Jun-13 20:28N 01°17' E 103°55'0 0.0
2018-Jun-13 19:55N 01°17' E 103°55'0 0.0
2018-Jun-13 19:01N 01°17' E 103°55'0 0.1
2018-Jun-13 18:58N 01°17' E 103°55'0 0.0
2018-Jun-13 18:18N 01°17' E 103°55'0 0.0
2018-Jun-13 17:58N 01°17' E 103°55'0 0.0
2018-Jun-13 17:29N 01°17' E 103°55'0 0.0
2018-Jun-13 16:43N 01°17' E 103°55'0 0.0
2018-Jun-13 16:25N 01°17' E 103°55'0 0.0
2018-Jun-13 15:58N 01°17' E 103°55'0 0.1
2018-Jun-13 13:28N 01°17' E 103°55'0 0.0
2018-Jun-13 10:58N 01°17' E 103°55'0 0.0
2018-Jun-13 10:10N 01°17' E 103°55'0 0.1
2018-Jun-13 08:51N 01°17' E 103°55'0 0.2
2018-Jun-13 08:28N 01°17' E 103°55'0 0.0
2018-Jun-13 05:10N 01°17' E 103°55'0 0.1
2018-Jun-13 04:04N 01°17' E 103°55'0 0.2
2018-Jun-13 03:46N 01°17' E 103°55'0 0.1
2018-Jun-13 03:16N 01°17' E 103°55'0 0.1
2018-Jun-13 01:52N 01°17' E 103°55'0 0.0
2018-Jun-12 23:46N 01°17' E 103°55'0 0.0
2018-Jun-12 23:25N 01°17' E 103°55'0 0.0
2018-Jun-12 22:58N 01°17' E 103°55'0 0.1
2018-Jun-12 22:16N 01°17' E 103°55'0 0.0
2018-Jun-12 21:40N 01°17' E 103°55'0 0.0
2018-Jun-12 20:46N 01°17' E 103°55'0 0.0
2018-Jun-12 20:04N 01°17' E 103°55'0 0.0
2018-Jun-12 19:54N 01°17' E 103°55'0 0.0
2018-Jun-12 19:25N 01°17' E 103°55'0 0.0
2018-Jun-12 18:55N 01°17' E 103°55'0 0.0
2018-Jun-12 18:28N 01°17' E 103°55'0 0.0
2018-Jun-12 17:58N 01°17' E 103°55'0 0.0
2018-Jun-12 17:25N 01°17' E 103°55'0 0.0
2018-Jun-12 16:07N 01°17' E 103°55'0 0.0
2018-Jun-12 15:55N 01°17' E 103°55'0 0.1
2018-Jun-12 15:22N 01°17' E 103°55'0 0.0
2018-Jun-12 14:55N 01°17' E 103°55'0 0.0
2018-Jun-12 14:28N 01°17' E 103°55'0 0.1
2018-Jun-12 13:58N 01°17' E 103°55'0 0.0
2018-Jun-12 13:28N 01°17' E 103°55'0 0.1
2018-Jun-12 12:58N 01°17' E 103°55'0 0.0
2018-Jun-12 12:28N 01°17' E 103°55'0 0.0
2018-Jun-12 11:55N 01°17' E 103°55'0 0.0
2018-Jun-12 11:25N 01°17' E 103°55'0 0.0
2018-Jun-12 10:46N 01°17' E 103°55'0 0.0
2018-Jun-12 10:16N 01°17' E 103°55'0 0.1
2018-Jun-12 09:40N 01°17' E 103°55'0 0.0
2018-Jun-12 09:28N 01°17' E 103°55'0 0.1
2018-Jun-12 08:25N 01°17' E 103°55'0 0.0
2018-Jun-12 07:58N 01°17' E 103°55'0 0.0
2018-Jun-12 07:22N 01°17' E 103°55'0 0.0
2018-Jun-12 06:47N 01°17' E 103°55'0 0.0
2018-Jun-12 06:29N 01°17' E 103°55'0 0.0
2018-Jun-12 05:44N 01°17' E 103°55'0 0.0
2018-Jun-12 05:26N 01°17' E 103°55'0 0.0
2018-Jun-12 04:59N 01°17' E 103°55'0 0.1
2018-Jun-12 04:26N 01°17' E 103°55'0 0.0
2018-Jun-12 03:44N 01°17' E 103°55'0 0.2
2018-Jun-12 03:23N 01°17' E 103°55'0 0.0
2018-Jun-12 02:56N 01°17' E 103°55'0 0.1
2018-Jun-12 02:11N 01°17' E 103°55'0 0.2
2018-Jun-12 01:56N 01°17' E 103°55'0 0.1
2018-Jun-12 01:29N 01°17' E 103°55'0 0.0
2018-Jun-12 00:59N 01°17' E 103°55'0 0.0
2018-Jun-12 00:29N 01°17' E 103°55'0 0.0
2018-Jun-11 23:58N 01°17' E 103°55'0 0.0
2018-Jun-11 23:17N 01°17' E 103°55'0 0.1
2018-Jun-11 22:59N 01°17' E 103°55'0 0.1
2018-Jun-11 22:20N 01°17' E 103°55'0 0.0
2018-Jun-11 21:43N 01°17' E 103°55'0 0.0
2018-Jun-11 21:29N 01°17' E 103°55'0 0.0
2018-Jun-11 20:59N 01°17' E 103°55'0 0.1
2018-Jun-11 20:11N 01°17' E 103°55'0 0.0
2018-Jun-11 19:58N 01°17' E 103°55'0 0.0
2018-Jun-11 19:26N 01°17' E 103°55'0 0.1
2018-Jun-11 18:59N 01°17' E 103°55'0 0.0
2018-Jun-11 18:29N 01°17' E 103°55'0 0.0
2018-Jun-11 17:34N 01°17' E 103°55'0 0.0
2018-Jun-11 17:23N 01°17' E 103°55'0 0.0
2018-Jun-11 16:59N 01°17' E 103°55'0 0.0
2018-Jun-11 16:26N 01°17' E 103°55'0 0.1
2018-Jun-11 15:17N 01°17' E 103°55'0 0.0
2018-Jun-11 14:59N 01°17' E 103°55'0 0.0
2018-Jun-11 14:29N 01°17' E 103°55'0 0.0
2018-Jun-11 13:59N 01°17' E 103°55'0 0.1
2018-Jun-11 12:46N 01°17' E 103°55'0 0.0
2018-Jun-11 12:26N 01°17' E 103°55'0 0.0
2018-Jun-11 11:56N 01°17' E 103°55'0 0.0
2018-Jun-11 11:29N 01°17' E 103°55'0 0.1
2018-Jun-11 10:55N 01°17' E 103°55'0 0.0
2018-Jun-11 10:19N 01°17' E 103°55'0 0.1
2018-Jun-11 09:43N 01°17' E 103°55'0 0.0
2018-Jun-11 08:52N 01°17' E 103°55'0 0.1
2018-Jun-11 08:20N 01°17' E 103°55'0 0.2
2018-Jun-11 07:58N 01°17' E 103°55'0 0.0
2018-Jun-11 07:28N 01°17' E 103°55'0 0.0
2018-Jun-11 06:52N 01°17' E 103°55'0 0.0
2018-Jun-11 06:28N 01°17' E 103°55'0 0.0
2018-Jun-11 05:55N 01°17' E 103°55'0 0.1
2018-Jun-11 05:28N 01°17' E 103°55'0 0.1
2018-Jun-11 04:58N 01°17' E 103°55'0 0.1
2018-Jun-11 04:28N 01°17' E 103°55'0 0.1
2018-Jun-11 03:40N 01°17' E 103°55'0 0.0
2018-Jun-11 03:28N 01°17' E 103°55'0 0.0
2018-Jun-11 02:59N 01°17' E 103°55'0 0.0
2018-Jun-11 01:28N 01°17' E 103°55'0 0.1
2018-Jun-11 00:58N 01°17' E 103°55'0 0.0
2018-Jun-11 00:19N 01°17' E 103°55'0 0.2
2018-Jun-10 23:52N 01°17' E 103°55'0 0.1
2018-Jun-10 23:25N 01°17' E 103°55'0 0.0
2018-Jun-10 22:55N 01°17' E 103°55'0 0.0
2018-Jun-10 22:28N 01°17' E 103°55'0 0.0
2018-Jun-10 21:37N 01°17' E 103°55'0 0.4
2018-Jun-10 21:28N 01°17' E 103°55'0 0.1
2018-Jun-10 20:56N 01°17' E 103°55'0 0.0
2018-Jun-10 20:07N 01°17' E 103°55'0 0.1
2018-Jun-10 19:58N 01°17' E 103°55'0 0.1
2018-Jun-10 18:37N 01°17' E 103°55'0 0.0
2018-Jun-10 18:25N 01°17' E 103°55'0 0.1
2018-Jun-10 17:53N 01°17' E 103°55'0 0.0
2018-Jun-10 17:28N 01°17' E 103°55'0 0.1
2018-Jun-10 16:56N 01°17' E 103°55'0 0.0
2018-Jun-10 16:25N 01°17' E 103°55'0 0.0
2018-Jun-10 15:43N 01°17' E 103°55'0 0.1
2018-Jun-10 14:53N 01°17' E 103°55'0 0.0
2018-Jun-10 14:28N 01°17' E 103°55'0 0.0
2018-Jun-10 13:20N 01°17' E 103°55'0 0.0
2018-Jun-10 12:47N 01°17' E 103°55'0 0.0
2018-Jun-10 12:13N 01°17' E 103°55'0 0.2
2018-Jun-10 11:59N 01°17' E 103°55'0 0.0
2018-Jun-10 11:28N 01°17' E 103°55'0 0.0
2018-Jun-10 10:28N 01°17' E 103°55'0 0.1
2018-Jun-10 09:58N 01°17' E 103°55'0 0.3
2018-Jun-10 09:29N 01°17' E 103°55'3 6.4
2018-Jun-10 09:00N 01°16' E 103°58'2 4.4
2018-Jun-10 08:30N 01°16' E 104°00'3 6.3
2018-Jun-10 07:58N 01°17' E 104°04'4 7.1
2018-Jun-10 07:27N 01°17' E 104°07'4 7.7
2018-Jun-10 06:59N 01°18' E 104°11'4 9.2
2018-Jun-10 06:31N 01°18' E 104°15'6 8.3
2018-Jun-10 05:51N 01°20' E 104°20'5 8.2
2018-Jun-10 05:16N 01°23' E 104°24'  

Dump ship's entire track history